sensor_id;sensor_type;location;lat;lon;timestamp;pressure;altitude;pressure_sealevel;temperature;humidity
33151;BME280;19508;42.578;23.416;2023-02-28T00:00:39;94108.53;;;8.27;85.79
33151;BME280;19508;42.578;23.416;2023-02-28T00:03:04;94109.13;;;8.29;85.92
33151;BME280;19508;42.578;23.416;2023-02-28T00:05:30;94106.91;;;8.26;86.06
33151;BME280;19508;42.578;23.416;2023-02-28T00:07:56;94117.53;;;8.32;86.09
33151;BME280;19508;42.578;23.416;2023-02-28T00:10:26;94115.94;;;8.43;85.78
33151;BME280;19508;42.578;23.416;2023-02-28T00:12:55;94117.44;;;8.51;85.68
33151;BME280;19508;42.578;23.416;2023-02-28T00:15:23;94096.34;;;8.42;85.67
33151;BME280;19508;42.578;23.416;2023-02-28T00:17:49;94109.06;;;8.59;85.52
33151;BME280;19508;42.578;23.416;2023-02-28T00:20:15;94102.53;;;8.66;84.67
33151;BME280;19508;42.578;23.416;2023-02-28T00:22:43;94094.22;;;8.44;85.44
33151;BME280;19508;42.578;23.416;2023-02-28T00:25:10;94103.78;;;8.52;84.92
33151;BME280;19508;42.578;23.416;2023-02-28T00:27:37;94109.28;;;8.57;84.07
33151;BME280;19508;42.578;23.416;2023-02-28T00:30:04;94105.44;;;8.53;84.30
33151;BME280;19508;42.578;23.416;2023-02-28T00:32:30;94106.13;;;8.37;85.30
33151;BME280;19508;42.578;23.416;2023-02-28T00:34:56;94081.75;;;8.38;85.33
33151;BME280;19508;42.578;23.416;2023-02-28T00:37:22;94099.38;;;8.46;85.27
33151;BME280;19508;42.578;23.416;2023-02-28T00:39:47;94097.63;;;8.52;84.88
33151;BME280;19508;42.578;23.416;2023-02-28T00:42:13;94089.00;;;8.38;85.15
33151;BME280;19508;42.578;23.416;2023-02-28T00:44:38;94092.19;;;8.28;85.65
33151;BME280;19508;42.578;23.416;2023-02-28T00:47:04;94089.06;;;8.19;85.67
33151;BME280;19508;42.578;23.416;2023-02-28T00:49:30;94081.25;;;8.06;86.02
33151;BME280;19508;42.578;23.416;2023-02-28T00:51:55;94078.19;;;8.03;86.49
33151;BME280;19508;42.578;23.416;2023-02-28T00:54:22;94063.38;;;8.00;86.94
33151;BME280;19508;42.578;23.416;2023-02-28T00:56:48;94077.97;;;8.16;86.70
33151;BME280;19508;42.578;23.416;2023-02-28T00:59:15;94080.31;;;8.12;86.79
33151;BME280;19508;42.578;23.416;2023-02-28T01:01:42;94089.03;;;7.96;86.90
33151;BME280;19508;42.578;23.416;2023-02-28T01:04:07;94089.22;;;7.83;87.79
33151;BME280;19508;42.578;23.416;2023-02-28T01:06:33;94105.78;;;7.80;88.21
33151;BME280;19508;42.578;23.416;2023-02-28T01:08:59;94093.91;;;7.87;87.87
33151;BME280;19508;42.578;23.416;2023-02-28T01:11:25;94098.22;;;7.88;88.35
33151;BME280;19508;42.578;23.416;2023-02-28T01:13:50;94106.28;;;8.00;88.47
33151;BME280;19508;42.578;23.416;2023-02-28T01:16:16;94094.25;;;7.79;88.31
33151;BME280;19508;42.578;23.416;2023-02-28T01:18:42;94084.78;;;7.77;88.13
33151;BME280;19508;42.578;23.416;2023-02-28T01:21:10;94091.81;;;7.89;87.13
33151;BME280;19508;42.578;23.416;2023-02-28T01:23:37;94097.59;;;7.75;87.48
33151;BME280;19508;42.578;23.416;2023-02-28T01:26:05;94090.53;;;7.50;88.43
33151;BME280;19508;42.578;23.416;2023-02-28T01:28:31;94115.06;;;7.66;88.86
33151;BME280;19508;42.578;23.416;2023-02-28T01:30:56;94108.22;;;7.81;87.60
33151;BME280;19508;42.578;23.416;2023-02-28T01:33:22;94094.47;;;7.78;86.94
33151;BME280;19508;42.578;23.416;2023-02-28T01:35:47;94099.50;;;7.86;87.40
33151;BME280;19508;42.578;23.416;2023-02-28T01:38:13;94069.06;;;7.80;86.98
33151;BME280;19508;42.578;23.416;2023-02-28T01:40:38;94092.06;;;7.88;86.75
33151;BME280;19508;42.578;23.416;2023-02-28T01:43:19;94086.09;;;7.86;86.13
33151;BME280;19508;42.578;23.416;2023-02-28T01:45:45;94102.25;;;7.68;86.65
33151;BME280;19508;42.578;23.416;2023-02-28T01:48:10;94100.38;;;7.68;86.85
33151;BME280;19508;42.578;23.416;2023-02-28T01:50:40;94098.88;;;7.72;86.49
33151;BME280;19508;42.578;23.416;2023-02-28T01:53:14;94104.00;;;7.74;86.00
33151;BME280;19508;42.578;23.416;2023-02-28T01:55:44;94094.53;;;7.59;85.35
33151;BME280;19508;42.578;23.416;2023-02-28T01:58:12;94092.16;;;7.51;85.19
33151;BME280;19508;42.578;23.416;2023-02-28T02:00:37;94103.09;;;7.38;85.17
33151;BME280;19508;42.578;23.416;2023-02-28T02:03:14;94108.44;;;7.38;85.72
33151;BME280;19508;42.578;23.416;2023-02-28T02:05:44;94103.47;;;7.23;85.64
33151;BME280;19508;42.578;23.416;2023-02-28T02:08:16;94113.69;;;7.15;85.33
33151;BME280;19508;42.578;23.416;2023-02-28T02:10:44;94103.44;;;7.12;85.00
33151;BME280;19508;42.578;23.416;2023-02-28T02:16:02;94103.66;;;6.92;84.89
33151;BME280;19508;42.578;23.416;2023-02-28T02:18:38;94112.72;;;6.91;84.43
33151;BME280;19508;42.578;23.416;2023-02-28T02:40:32;94114.75;;;6.59;85.76
33151;BME280;19508;42.578;23.416;2023-02-28T02:43:17;94113.31;;;6.56;85.25
33151;BME280;19508;42.578;23.416;2023-02-28T02:45:56;94100.88;;;6.43;85.38
33151;BME280;19508;42.578;23.416;2023-02-28T02:48:27;94098.81;;;6.45;85.47
33151;BME280;19508;42.578;23.416;2023-02-28T02:50:57;94109.97;;;6.42;85.83
33151;BME280;19508;42.578;23.416;2023-02-28T02:53:34;94109.19;;;6.35;86.72
33151;BME280;19508;42.578;23.416;2023-02-28T02:56:02;94116.91;;;6.25;87.83
33151;BME280;19508;42.578;23.416;2023-02-28T02:58:32;94129.38;;;6.31;88.33
33151;BME280;19508;42.578;23.416;2023-02-28T03:01:01;94121.75;;;6.35;88.27
33151;BME280;19508;42.578;23.416;2023-02-28T03:03:29;94124.66;;;6.33;87.52
33151;BME280;19508;42.578;23.416;2023-02-28T03:05:57;94116.00;;;6.31;87.59
33151;BME280;19508;42.578;23.416;2023-02-28T03:08:23;94126.94;;;6.30;88.28
33151;BME280;19508;42.578;23.416;2023-02-28T03:10:51;94140.84;;;6.38;89.17
33151;BME280;19508;42.578;23.416;2023-02-28T03:16:24;94160.38;;;6.64;89.00
33151;BME280;19508;42.578;23.416;2023-02-28T03:24:35;94153.97;;;6.65;90.96
33151;BME280;19508;42.578;23.416;2023-02-28T03:27:34;94140.72;;;6.52;91.44
33151;BME280;19508;42.578;23.416;2023-02-28T03:30:09;94159.72;;;6.68;91.05
33151;BME280;19508;42.578;23.416;2023-02-28T03:32:40;94172.06;;;6.69;90.40
33151;BME280;19508;42.578;23.416;2023-02-28T03:35:16;94163.56;;;6.72;90.47
33151;BME280;19508;42.578;23.416;2023-02-28T03:37:50;94158.66;;;6.69;90.15
33151;BME280;19508;42.578;23.416;2023-02-28T03:40:21;94169.22;;;6.83;89.95
33151;BME280;19508;42.578;23.416;2023-02-28T03:42:52;94157.28;;;6.85;88.98
33151;BME280;19508;42.578;23.416;2023-02-28T03:45:24;94165.81;;;6.75;89.34
33151;BME280;19508;42.578;23.416;2023-02-28T03:48:16;94154.13;;;6.52;90.23
33151;BME280;19508;42.578;23.416;2023-02-28T03:50:48;94165.53;;;6.84;89.45
33151;BME280;19508;42.578;23.416;2023-02-28T03:55:49;94162.75;;;6.90;88.70
33151;BME280;19508;42.578;23.416;2023-02-28T03:58:31;94173.84;;;6.75;88.28
33151;BME280;19508;42.578;23.416;2023-02-28T04:01:07;94170.31;;;6.75;89.01
33151;BME280;19508;42.578;23.416;2023-02-28T04:03:36;94177.25;;;6.83;88.77
33151;BME280;19508;42.578;23.416;2023-02-28T04:06:02;94154.13;;;6.70;88.34
33151;BME280;19508;42.578;23.416;2023-02-28T04:08:29;94169.75;;;6.73;88.03
33151;BME280;19508;42.578;23.416;2023-02-28T04:11:01;94169.22;;;6.83;88.54
33151;BME280;19508;42.578;23.416;2023-02-28T04:13:29;94176.94;;;6.72;88.11
33151;BME280;19508;42.578;23.416;2023-02-28T04:15:55;94181.34;;;6.67;87.83
33151;BME280;19508;42.578;23.416;2023-02-28T04:18:20;94153.38;;;6.63;87.16
33151;BME280;19508;42.578;23.416;2023-02-28T04:20:45;94170.94;;;6.59;86.98
33151;BME280;19508;42.578;23.416;2023-02-28T04:23:11;94156.03;;;6.44;86.74
33151;BME280;19508;42.578;23.416;2023-02-28T04:25:36;94163.09;;;6.32;87.77
33151;BME280;19508;42.578;23.416;2023-02-28T04:28:02;94167.81;;;6.37;87.76
33151;BME280;19508;42.578;23.416;2023-02-28T04:30:27;94167.81;;;6.37;87.66
33151;BME280;19508;42.578;23.416;2023-02-28T04:32:54;94157.63;;;6.27;87.86
33151;BME280;19508;42.578;23.416;2023-02-28T04:35:20;94161.81;;;6.16;88.59
33151;BME280;19508;42.578;23.416;2023-02-28T04:37:45;94163.41;;;5.99;90.24
33151;BME280;19508;42.578;23.416;2023-02-28T04:40:11;94154.81;;;5.90;91.45
33151;BME280;19508;42.578;23.416;2023-02-28T04:42:36;94168.94;;;6.22;91.50
33151;BME280;19508;42.578;23.416;2023-02-28T04:45:02;94181.69;;;6.27;91.54
33151;BME280;19508;42.578;23.416;2023-02-28T04:47:28;94186.84;;;6.47;91.84
33151;BME280;19508;42.578;23.416;2023-02-28T04:49:53;94178.66;;;6.67;91.00
33151;BME280;19508;42.578;23.416;2023-02-28T04:52:19;94176.25;;;6.84;90.55
33151;BME280;19508;42.578;23.416;2023-02-28T04:54:44;94189.94;;;6.94;90.56
33151;BME280;19508;42.578;23.416;2023-02-28T04:57:10;94162.13;;;6.95;90.49
33151;BME280;19508;42.578;23.416;2023-02-28T04:59:35;94190.28;;;7.16;89.99
33151;BME280;19508;42.578;23.416;2023-02-28T05:02:01;94177.34;;;7.13;89.02
33151;BME280;19508;42.578;23.416;2023-02-28T05:04:33;94172.13;;;7.18;88.73
33151;BME280;19508;42.578;23.416;2023-02-28T05:07:00;94191.78;;;7.48;88.81
33151;BME280;19508;42.578;23.416;2023-02-28T05:09:25;94193.69;;;7.59;89.16
33151;BME280;19508;42.578;23.416;2023-02-28T05:11:50;94187.28;;;7.60;88.50
33151;BME280;19508;42.578;23.416;2023-02-28T05:14:18;94196.66;;;7.70;88.53
33151;BME280;19508;42.578;23.416;2023-02-28T05:16:43;94190.84;;;7.73;88.56
33151;BME280;19508;42.578;23.416;2023-02-28T05:19:12;94190.13;;;7.77;87.95
33151;BME280;19508;42.578;23.416;2023-02-28T05:21:41;94196.84;;;7.86;88.45
33151;BME280;19508;42.578;23.416;2023-02-28T05:24:13;94205.97;;;7.97;88.20
33151;BME280;19508;42.578;23.416;2023-02-28T05:26:40;94194.94;;;8.05;88.38
33151;BME280;19508;42.578;23.416;2023-02-28T05:29:07;94201.38;;;8.16;87.49
33151;BME280;19508;42.578;23.416;2023-02-28T05:31:33;94205.59;;;8.24;87.66
33151;BME280;19508;42.578;23.416;2023-02-28T05:33:58;94189.97;;;8.20;87.49
33151;BME280;19508;42.578;23.416;2023-02-28T05:36:24;94213.00;;;8.40;87.44
33151;BME280;19508;42.578;23.416;2023-02-28T05:38:50;94223.28;;;8.43;87.14
33151;BME280;19508;42.578;23.416;2023-02-28T05:41:17;94218.03;;;8.48;86.52
33151;BME280;19508;42.578;23.416;2023-02-28T05:43:42;94220.91;;;8.35;87.84
33151;BME280;19508;42.578;23.416;2023-02-28T05:46:11;94225.22;;;8.36;87.85
33151;BME280;19508;42.578;23.416;2023-02-28T05:48:37;94221.16;;;8.45;86.92
33151;BME280;19508;42.578;23.416;2023-02-28T05:51:04;94232.28;;;8.60;86.40
33151;BME280;19508;42.578;23.416;2023-02-28T05:53:30;94236.34;;;8.51;85.79
33151;BME280;19508;42.578;23.416;2023-02-28T05:55:56;94233.81;;;8.56;85.43
33151;BME280;19508;42.578;23.416;2023-02-28T05:58:23;94220.72;;;8.48;84.06
33151;BME280;19508;42.578;23.416;2023-02-28T06:00:48;94226.81;;;8.55;84.53
33151;BME280;19508;42.578;23.416;2023-02-28T06:03:14;94225.66;;;8.21;86.07
33151;BME280;19508;42.578;23.416;2023-02-28T06:05:39;94235.44;;;8.57;85.47
33151;BME280;19508;42.578;23.416;2023-02-28T06:08:05;94236.00;;;8.47;85.25
33151;BME280;19508;42.578;23.416;2023-02-28T06:10:34;94239.69;;;8.35;85.89
33151;BME280;19508;42.578;23.416;2023-02-28T06:13:01;94223.41;;;8.48;85.55
33151;BME280;19508;42.578;23.416;2023-02-28T06:15:28;94236.50;;;8.80;85.58
33151;BME280;19508;42.578;23.416;2023-02-28T06:17:54;94229.38;;;8.97;84.83
33151;BME280;19508;42.578;23.416;2023-02-28T06:20:22;94238.84;;;8.88;84.81
33151;BME280;19508;42.578;23.416;2023-02-28T06:22:50;94238.75;;;8.83;84.79
33151;BME280;19508;42.578;23.416;2023-02-28T06:25:16;94223.69;;;8.93;83.66
33151;BME280;19508;42.578;23.416;2023-02-28T06:27:43;94219.38;;;8.81;84.96
33151;BME280;19508;42.578;23.416;2023-02-28T06:30:10;94218.75;;;8.79;85.31
33151;BME280;19508;42.578;23.416;2023-02-28T06:32:35;94239.78;;;8.93;85.34
33151;BME280;19508;42.578;23.416;2023-02-28T06:35:01;94226.47;;;9.10;84.76
33151;BME280;19508;42.578;23.416;2023-02-28T06:37:27;94231.03;;;9.21;84.94
33151;BME280;19508;42.578;23.416;2023-02-28T06:39:54;94227.63;;;9.38;84.57
33151;BME280;19508;42.578;23.416;2023-02-28T06:42:22;94232.41;;;9.59;84.15
33151;BME280;19508;42.578;23.416;2023-02-28T06:44:50;94248.38;;;9.77;83.92
33151;BME280;19508;42.578;23.416;2023-02-28T06:47:16;94248.50;;;9.99;83.40
33151;BME280;19508;42.578;23.416;2023-02-28T06:49:41;94248.22;;;10.24;81.91
33151;BME280;19508;42.578;23.416;2023-02-28T06:52:07;94253.50;;;10.19;82.64
33151;BME280;19508;42.578;23.416;2023-02-28T06:54:32;94235.81;;;10.23;81.86
33151;BME280;19508;42.578;23.416;2023-02-28T06:56:58;94250.22;;;10.17;80.98
33151;BME280;19508;42.578;23.416;2023-02-28T06:59:23;94252.25;;;10.38;81.10
33151;BME280;19508;42.578;23.416;2023-02-28T07:01:49;94248.28;;;10.58;80.25
33151;BME280;19508;42.578;23.416;2023-02-28T07:04:17;94247.81;;;10.61;79.97
33151;BME280;19508;42.578;23.416;2023-02-28T07:06:42;94252.31;;;10.72;79.63
33151;BME280;19508;42.578;23.416;2023-02-28T07:09:07;94252.00;;;10.85;79.95
33151;BME280;19508;42.578;23.416;2023-02-28T07:11:33;94246.53;;;10.80;78.97
33151;BME280;19508;42.578;23.416;2023-02-28T07:13:58;94247.09;;;10.82;79.19
33151;BME280;19508;42.578;23.416;2023-02-28T07:16:24;94250.34;;;10.84;79.33
33151;BME280;19508;42.578;23.416;2023-02-28T07:18:52;94253.28;;;10.99;78.20
33151;BME280;19508;42.578;23.416;2023-02-28T07:21:18;94249.53;;;11.00;77.85
33151;BME280;19508;42.578;23.416;2023-02-28T07:23:44;94238.75;;;11.00;77.36
33151;BME280;19508;42.578;23.416;2023-02-28T07:26:15;94257.22;;;10.92;77.87
33151;BME280;19508;42.578;23.416;2023-02-28T07:28:43;94252.22;;;11.00;77.57
33151;BME280;19508;42.578;23.416;2023-02-28T07:31:09;94231.16;;;11.14;75.56
33151;BME280;19508;42.578;23.416;2023-02-28T07:33:36;94257.34;;;11.19;76.55
33151;BME280;19508;42.578;23.416;2023-02-28T07:36:09;94236.66;;;11.02;76.75
33151;BME280;19508;42.578;23.416;2023-02-28T07:38:39;94257.22;;;11.09;75.92
33151;BME280;19508;42.578;23.416;2023-02-28T07:41:04;94246.53;;;11.14;76.25
33151;BME280;19508;42.578;23.416;2023-02-28T07:43:31;94256.09;;;11.05;77.21
33151;BME280;19508;42.578;23.416;2023-02-28T07:46:09;94253.41;;;11.43;76.04
33151;BME280;19508;42.578;23.416;2023-02-28T07:48:34;94248.03;;;11.43;75.66
33151;BME280;19508;42.578;23.416;2023-02-28T07:51:00;94247.16;;;11.59;76.23
33151;BME280;19508;42.578;23.416;2023-02-28T07:53:27;94247.88;;;11.89;74.99
33151;BME280;19508;42.578;23.416;2023-02-28T07:55:57;94249.00;;;11.76;74.94
33151;BME280;19508;42.578;23.416;2023-02-28T07:58:27;94235.13;;;11.67;74.13
33151;BME280;19508;42.578;23.416;2023-02-28T08:00:53;94249.53;;;11.73;75.05
33151;BME280;19508;42.578;23.416;2023-02-28T08:03:20;94245.19;;;11.72;74.85
33151;BME280;19508;42.578;23.416;2023-02-28T08:05:46;94244.47;;;11.98;74.00
33151;BME280;19508;42.578;23.416;2023-02-28T08:08:13;94250.81;;;12.09;73.66
33151;BME280;19508;42.578;23.416;2023-02-28T08:10:44;94257.19;;;12.03;73.38
33151;BME280;19508;42.578;23.416;2023-02-28T08:13:11;94240.41;;;11.79;74.27
33151;BME280;19508;42.578;23.416;2023-02-28T08:15:36;94241.28;;;11.63;73.63
33151;BME280;19508;42.578;23.416;2023-02-28T08:18:02;94249.00;;;11.54;74.03
33151;BME280;19508;42.578;23.416;2023-02-28T08:20:27;94254.56;;;11.47;75.16
33151;BME280;19508;42.578;23.416;2023-02-28T08:22:53;94239.38;;;11.41;75.25
33151;BME280;19508;42.578;23.416;2023-02-28T08:25:19;94255.69;;;11.51;75.42
33151;BME280;19508;42.578;23.416;2023-02-28T08:27:44;94248.09;;;11.48;74.60
33151;BME280;19508;42.578;23.416;2023-02-28T08:30:12;94253.38;;;11.60;73.96
33151;BME280;19508;42.578;23.416;2023-02-28T08:32:38;94261.41;;;11.55;73.59
33151;BME280;19508;42.578;23.416;2023-02-28T08:35:03;94237.44;;;11.37;73.91
33151;BME280;19508;42.578;23.416;2023-02-28T08:37:29;94248.50;;;11.57;73.49
33151;BME280;19508;42.578;23.416;2023-02-28T08:39:54;94256.53;;;11.91;73.13
33151;BME280;19508;42.578;23.416;2023-02-28T08:42:20;94260.84;;;12.13;72.01
33151;BME280;19508;42.578;23.416;2023-02-28T08:44:45;94255.75;;;11.95;72.75
33151;BME280;19508;42.578;23.416;2023-02-28T08:47:11;94251.19;;;11.79;72.80
33151;BME280;19508;42.578;23.416;2023-02-28T08:49:37;94252.91;;;11.63;72.71
33151;BME280;19508;42.578;23.416;2023-02-28T08:52:03;94245.19;;;11.72;72.23
33151;BME280;19508;42.578;23.416;2023-02-28T08:54:28;94259.47;;;11.34;73.09
33151;BME280;19508;42.578;23.416;2023-02-28T08:56:56;94252.78;;;11.75;72.61
33151;BME280;19508;42.578;23.416;2023-02-28T08:59:22;94261.72;;;12.46;71.23
33151;BME280;19508;42.578;23.416;2023-02-28T09:01:48;94267.28;;;12.12;70.29
33151;BME280;19508;42.578;23.416;2023-02-28T09:04:13;94255.78;;;12.44;71.29
33151;BME280;19508;42.578;23.416;2023-02-28T09:06:39;94246.81;;;12.97;68.86
33151;BME280;19508;42.578;23.416;2023-02-28T09:09:04;94258.19;;;13.32;66.83
33151;BME280;19508;42.578;23.416;2023-02-28T09:11:31;94265.75;;;13.30;67.01
33151;BME280;19508;42.578;23.416;2023-02-28T09:13:58;94261.50;;;13.39;65.57
33151;BME280;19508;42.578;23.416;2023-02-28T09:16:25;94264.78;;;13.46;66.01
33151;BME280;19508;42.578;23.416;2023-02-28T09:18:50;94265.97;;;13.60;65.28
33151;BME280;19508;42.578;23.416;2023-02-28T09:21:17;94250.50;;;14.03;64.40
33151;BME280;19508;42.578;23.416;2023-02-28T09:23:45;94259.19;;;14.05;65.61
33151;BME280;19508;42.578;23.416;2023-02-28T09:26:16;94264.94;;;14.24;63.35
33151;BME280;19508;42.578;23.416;2023-02-28T09:28:43;94267.69;;;14.34;62.78
33151;BME280;19508;42.578;23.416;2023-02-28T09:31:14;94262.63;;;14.48;61.85
33151;BME280;19508;42.578;23.416;2023-02-28T09:33:40;94257.47;;;14.46;62.11
33151;BME280;19508;42.578;23.416;2023-02-28T09:36:05;94258.47;;;14.30;61.42
33151;BME280;19508;42.578;23.416;2023-02-28T09:38:31;94262.69;;;14.73;62.88
33151;BME280;19508;42.578;23.416;2023-02-28T09:41:00;94262.78;;;14.26;61.83
33151;BME280;19508;42.578;23.416;2023-02-28T09:43:29;94256.97;;;13.97;62.76
33151;BME280;19508;42.578;23.416;2023-02-28T09:48:45;94255.88;;;13.45;64.32
33151;BME280;19508;42.578;23.416;2023-02-28T09:53:57;94250.69;;;13.39;65.79
33151;BME280;19508;42.578;23.416;2023-02-28T09:56:37;94247.69;;;13.77;64.48
33151;BME280;19508;42.578;23.416;2023-02-28T10:04:19;94251.78;;;13.85;63.12
33151;BME280;19508;42.578;23.416;2023-02-28T10:06:51;94257.28;;;13.53;64.44
33151;BME280;19508;42.578;23.416;2023-02-28T10:09:30;94245.69;;;13.20;65.21
33151;BME280;19508;42.578;23.416;2023-02-28T10:12:03;94241.78;;;13.43;64.94
33151;BME280;19508;42.578;23.416;2023-02-28T10:14:32;94244.94;;;13.30;65.15
33151;BME280;19508;42.578;23.416;2023-02-28T10:17:08;94242.94;;;13.52;65.07
33151;BME280;19508;42.578;23.416;2023-02-28T10:22:22;94242.13;;;13.52;63.75
33151;BME280;19508;42.578;23.416;2023-02-28T10:24:51;94240.81;;;13.60;63.58
33151;BME280;19508;42.578;23.416;2023-02-28T10:29:51;94233.63;;;13.80;63.82
33151;BME280;19508;42.578;23.416;2023-02-28T10:32:20;94232.47;;;13.71;63.26
33151;BME280;19508;42.578;23.416;2023-02-28T10:35:18;94233.63;;;13.80;64.48
33151;BME280;19508;42.578;23.416;2023-02-28T10:37:50;94225.22;;;13.82;63.26
33151;BME280;19508;42.578;23.416;2023-02-28T10:43:20;94209.13;;;13.55;64.09
33151;BME280;19508;42.578;23.416;2023-02-28T10:45:58;94207.09;;;13.77;63.20
33151;BME280;19508;42.578;23.416;2023-02-28T10:50:56;94209.16;;;14.23;62.54
33151;BME280;19508;42.578;23.416;2023-02-28T11:03:54;94192.81;;;13.97;62.13
33151;BME280;19508;42.578;23.416;2023-02-28T11:06:25;94191.63;;;13.73;62.20
33151;BME280;19508;42.578;23.416;2023-02-28T11:08:54;94188.59;;;13.59;64.69
33151;BME280;19508;42.578;23.416;2023-02-28T11:11:24;94186.66;;;14.12;62.69
33151;BME280;19508;42.578;23.416;2023-02-28T11:13:53;94186.56;;;13.92;61.63
33151;BME280;19508;42.578;23.416;2023-02-28T11:16:20;94183.28;;;13.79;62.33
33151;BME280;19508;42.578;23.416;2023-02-28T11:18:52;94192.31;;;13.48;63.10
33151;BME280;19508;42.578;23.416;2023-02-28T11:24:02;94176.25;;;13.31;63.97
33151;BME280;19508;42.578;23.416;2023-02-28T11:26:45;94178.31;;;12.82;65.92
33151;BME280;19508;42.578;23.416;2023-02-28T11:29:19;94186.25;;;13.25;65.17
33151;BME280;19508;42.578;23.416;2023-02-28T11:32:19;94187.59;;;13.28;64.52
33151;BME280;19508;42.578;23.416;2023-02-28T11:34:47;94171.75;;;13.42;63.87
33151;BME280;19508;42.578;23.416;2023-02-28T11:37:26;94178.06;;;13.63;63.58
33151;BME280;19508;42.578;23.416;2023-02-28T11:39:52;94174.59;;;13.77;63.65
33151;BME280;19508;42.578;23.416;2023-02-28T11:42:27;94177.25;;;13.62;63.04
33151;BME280;19508;42.578;23.416;2023-02-28T11:47:48;94174.75;;;14.23;61.69
33151;BME280;19508;42.578;23.416;2023-02-28T11:53:19;94174.56;;;13.67;63.17
33151;BME280;19508;42.578;23.416;2023-02-28T12:01:09;94177.50;;;13.66;63.57
33151;BME280;19508;42.578;23.416;2023-02-28T12:06:23;94170.69;;;14.26;61.72
33151;BME280;19508;42.578;23.416;2023-02-28T12:11:32;94167.19;;;14.30;61.45
33151;BME280;19508;42.578;23.416;2023-02-28T12:16:32;94166.28;;;13.94;62.00
33151;BME280;19508;42.578;23.416;2023-02-28T12:22:28;94163.66;;;14.20;61.79
33151;BME280;19508;42.578;23.416;2023-02-28T12:25:25;94162.84;;;14.34;61.64
33151;BME280;19508;42.578;23.416;2023-02-28T12:27:49;94156.25;;;14.00;60.99
33151;BME280;19508;42.578;23.416;2023-02-28T12:32:54;94167.66;;;14.02;62.01
33151;BME280;19508;42.578;23.416;2023-02-28T12:35:33;94173.91;;;13.50;63.56
33151;BME280;19508;42.578;23.416;2023-02-28T12:38:14;94163.03;;;13.40;63.94
33151;BME280;19508;42.578;23.416;2023-02-28T12:40:49;94159.00;;;13.00;65.42
33151;BME280;19508;42.578;23.416;2023-02-28T12:43:16;94156.16;;;13.17;65.36
33151;BME280;19508;42.578;23.416;2023-02-28T12:45:53;94158.41;;;13.88;63.31
33151;BME280;19508;42.578;23.416;2023-02-28T12:51:05;94157.97;;;14.31;62.05
33151;BME280;19508;42.578;23.416;2023-02-28T12:59:01;94151.94;;;13.94;61.50
33151;BME280;19508;42.578;23.416;2023-02-28T13:10:50;94148.94;;;13.90;61.98
33151;BME280;19508;42.578;23.416;2023-02-28T13:13:22;94143.66;;;13.58;62.90
33151;BME280;19508;42.578;23.416;2023-02-28T13:16:10;94165.78;;;13.45;63.45
33151;BME280;19508;42.578;23.416;2023-02-28T13:18:38;94151.22;;;13.09;64.45
33151;BME280;19508;42.578;23.416;2023-02-28T13:21:08;94149.59;;;12.70;65.75
33151;BME280;19508;42.578;23.416;2023-02-28T13:23:57;94145.88;;;12.82;65.68
33151;BME280;19508;42.578;23.416;2023-02-28T13:29:27;94152.88;;;12.78;65.48
33151;BME280;19508;42.578;23.416;2023-02-28T13:34:32;94154.63;;;12.57;65.96
33151;BME280;19508;42.578;23.416;2023-02-28T13:37:41;94152.81;;;12.35;66.66
33151;BME280;19508;42.578;23.416;2023-02-28T13:42:48;94144.66;;;12.03;68.37
33151;BME280;19508;42.578;23.416;2023-02-28T13:45:30;94149.44;;;11.74;69.13
33151;BME280;19508;42.578;23.416;2023-02-28T13:48:02;94145.06;;;11.90;69.56
33151;BME280;19508;42.578;23.416;2023-02-28T13:50:36;94142.66;;;11.94;69.51
33151;BME280;19508;42.578;23.416;2023-02-28T13:58:58;94142.03;;;12.08;68.99
33151;BME280;19508;42.578;23.416;2023-02-28T14:06:58;94148.63;;;11.96;69.73
33151;BME280;19508;42.578;23.416;2023-02-28T14:09:28;94147.06;;;11.78;70.48
33151;BME280;19508;42.578;23.416;2023-02-28T14:11:54;94151.22;;;11.64;71.09
33151;BME280;19508;42.578;23.416;2023-02-28T14:17:12;94151.00;;;11.26;72.74
33151;BME280;19508;42.578;23.416;2023-02-28T14:19:39;94155.31;;;11.27;72.79
33151;BME280;19508;42.578;23.416;2023-02-28T14:27:40;94162.84;;;11.04;74.60
33151;BME280;19508;42.578;23.416;2023-02-28T14:33:22;94152.88;;;11.04;74.56
33151;BME280;19508;42.578;23.416;2023-02-28T14:36:17;94160.19;;;11.09;74.22
33151;BME280;19508;42.578;23.416;2023-02-28T14:38:51;94157.09;;;11.00;74.24
33151;BME280;19508;42.578;23.416;2023-02-28T14:41:24;94158.44;;;10.97;74.44
33151;BME280;19508;42.578;23.416;2023-02-28T14:43:58;94157.06;;;10.78;75.47
33151;BME280;19508;42.578;23.416;2023-02-28T14:46:28;94148.63;;;10.91;75.08
33151;BME280;19508;42.578;23.416;2023-02-28T14:48:55;94138.16;;;11.12;74.29
33151;BME280;19508;42.578;23.416;2023-02-28T14:51:22;94144.59;;;11.11;74.24
33151;BME280;19508;42.578;23.416;2023-02-28T14:53:57;94135.97;;;10.92;75.18
33151;BME280;19508;42.578;23.416;2023-02-28T14:56:27;94139.31;;;10.99;74.90
33151;BME280;19508;42.578;23.416;2023-02-28T14:58:55;94147.22;;;11.06;74.40
33151;BME280;19508;42.578;23.416;2023-02-28T15:01:22;94148.78;;;11.01;74.59
33151;BME280;19508;42.578;23.416;2023-02-28T15:03:57;94141.47;;;10.80;74.82
33151;BME280;19508;42.578;23.416;2023-02-28T15:06:22;94139.47;;;10.92;74.83
33151;BME280;19508;42.578;23.416;2023-02-28T15:09:09;94138.38;;;10.71;75.24
33151;BME280;19508;42.578;23.416;2023-02-28T15:11:38;94139.69;;;10.69;75.60
33151;BME280;19508;42.578;23.416;2023-02-28T15:14:04;94142.53;;;10.79;75.07
33151;BME280;19508;42.578;23.416;2023-02-28T15:16:41;94149.16;;;10.71;75.50
33151;BME280;19508;42.578;23.416;2023-02-28T15:19:20;94143.78;;;10.55;76.27
33151;BME280;19508;42.578;23.416;2023-02-28T15:21:51;94154.38;;;10.61;76.48
33151;BME280;19508;42.578;23.416;2023-02-28T15:24:26;94162.88;;;10.53;76.65
33151;BME280;19508;42.578;23.416;2023-02-28T15:27:03;94169.38;;;10.57;76.58